createdAt,value
2018-09-30T00:03:23.751Z,8.80
2018-09-30T00:08:28.038Z,8.63
2018-09-30T00:13:32.224Z,7.53
2018-09-30T00:18:36.534Z,6.60
2018-09-30T00:23:46.088Z,6.93
2018-09-30T00:28:50.488Z,10.47
2018-09-30T00:33:59.982Z,5.90
2018-09-30T00:39:05.344Z,7.67
2018-09-30T00:44:09.678Z,8.90
2018-09-30T00:49:14.428Z,6.03
2018-09-30T00:54:18.858Z,8.13
2018-09-30T00:59:23.195Z,9.07
2018-09-30T01:04:28.318Z,9.63
2018-09-30T01:09:32.519Z,9.47
2018-09-30T01:14:36.862Z,10.60
2018-09-30T01:19:41.138Z,9.03
2018-09-30T01:24:45.391Z,6.33
2018-09-30T01:29:49.646Z,6.57
2018-09-30T01:34:53.920Z,11.80
2018-09-30T01:39:58.200Z,9.43
2018-09-30T01:45:02.434Z,9.13
2018-09-30T01:50:06.648Z,12.30
2018-09-30T01:55:11.112Z,9.00
2018-09-30T02:00:16.098Z,7.80
2018-09-30T02:05:20.806Z,9.80
2018-09-30T02:10:25.018Z,7.60
2018-09-30T02:15:29.188Z,8.20
2018-09-30T02:20:33.538Z,10.47
2018-09-30T02:25:37.820Z,8.03
2018-09-30T02:30:42.098Z,12.30
2018-09-30T02:35:46.296Z,9.07
2018-09-30T02:40:50.734Z,8.50
2018-09-30T02:45:55.082Z,9.10
2018-09-30T02:50:59.673Z,8.83
2018-09-30T02:56:03.890Z,9.77
2018-09-30T03:01:08.279Z,8.30
2018-09-30T03:06:16.650Z,9.57
2018-09-30T03:11:20.936Z,10.17
2018-09-30T03:16:25.238Z,9.07
2018-09-30T03:21:29.521Z,8.47
2018-09-30T03:26:34.025Z,8.00
2018-09-30T03:31:38.387Z,8.67
2018-09-30T03:36:42.829Z,10.10
2018-09-30T03:41:47.257Z,9.10
2018-09-30T03:46:51.491Z,9.87
2018-09-30T03:51:55.839Z,7.33
2018-09-30T03:57:00.238Z,7.40
2018-09-30T04:02:04.527Z,7.73
2018-09-30T04:07:08.959Z,7.40
2018-09-30T04:12:13.378Z,8.50
2018-09-30T04:17:17.668Z,8.77
2018-09-30T04:22:21.838Z,11.30
2018-09-30T04:27:26.102Z,8.07
2018-09-30T04:32:30.437Z,8.37
2018-09-30T04:37:34.819Z,8.80
2018-09-30T04:42:39.075Z,8.37
2018-09-30T04:47:43.383Z,7.73
2018-09-30T04:52:47.721Z,10.60
2018-09-30T04:57:51.975Z,5.67
2018-09-30T05:02:56.337Z,7.67
2018-09-30T05:08:00.609Z,6.57
2018-09-30T05:13:04.900Z,5.83
2018-09-30T05:18:09.317Z,6.07
2018-09-30T05:23:13.575Z,6.13
2018-09-30T05:28:17.773Z,8.03
2018-09-30T05:33:22.607Z,8.10
2018-09-30T05:38:26.873Z,10.03
2018-09-30T05:43:31.061Z,7.50
2018-09-30T05:48:35.847Z,8.23
2018-09-30T05:53:39.963Z,6.90
2018-09-30T05:58:45.349Z,9.10
2018-09-30T06:03:50.658Z,8.00
2018-09-30T06:08:55.059Z,7.00
2018-09-30T06:13:59.534Z,9.33
2018-09-30T06:19:03.720Z,8.73
2018-09-30T06:24:08.290Z,5.90
2018-09-30T06:29:12.491Z,8.47
2018-09-30T06:34:16.861Z,7.43
2018-09-30T06:39:21.105Z,5.60
2018-09-30T06:44:25.610Z,6.07
2018-09-30T06:49:29.937Z,6.37
2018-09-30T06:54:34.099Z,7.70
2018-09-30T06:59:38.645Z,7.53
2018-09-30T07:04:42.991Z,6.43
2018-09-30T07:09:47.591Z,6.80
2018-09-30T07:14:51.872Z,6.70
2018-09-30T07:19:56.742Z,5.73
2018-09-30T07:25:01.373Z,7.60
2018-09-30T07:30:06.051Z,5.30
2018-09-30T07:35:10.483Z,4.97
2018-09-30T07:40:14.905Z,5.47
2018-09-30T07:45:20.341Z,6.27
2018-09-30T07:50:24.771Z,4.70
2018-09-30T07:55:29.073Z,5.70
2018-09-30T08:00:33.263Z,4.83
2018-09-30T08:05:37.489Z,4.03
2018-09-30T08:10:42.127Z,5.50
2018-09-30T08:15:46.885Z,5.30
2018-09-30T08:20:51.211Z,4.80
2018-09-30T08:25:55.539Z,4.00
2018-09-30T08:30:59.839Z,6.90
2018-09-30T08:36:10.163Z,5.70
2018-09-30T08:41:14.599Z,6.77
2018-09-30T08:46:18.977Z,5.33
2018-09-30T08:51:23.205Z,4.87
2018-09-30T08:56:27.495Z,4.97
2018-09-30T09:01:31.855Z,4.80
2018-09-30T09:06:36.222Z,8.20
2018-09-30T09:11:40.424Z,6.47
2018-09-30T09:16:44.690Z,4.70
2018-09-30T09:21:48.957Z,8.43
2018-09-30T09:26:53.397Z,3.30
2018-09-30T09:31:58.827Z,7.37
2018-09-30T09:37:02.972Z,8.03
2018-09-30T09:42:07.522Z,6.58
2018-09-30T10:52:57.997Z,4.53
2018-09-30T10:58:03.150Z,4.75
2018-09-30T11:28:26.083Z,7.08
2018-09-30T11:33:30.472Z,4.27
2018-09-30T11:38:34.792Z,5.80
2018-09-30T11:43:39.257Z,2.67
2018-09-30T11:48:43.599Z,2.87
2018-09-30T11:53:48.709Z,2.95
2018-09-30T11:58:53.120Z,5.72
2018-09-30T12:03:57.485Z,3.87
2018-09-30T12:09:01.887Z,3.40
2018-09-30T12:14:06.165Z,3.92
2018-09-30T12:19:10.536Z,3.77
2018-09-30T12:24:14.849Z,3.40
2018-09-30T12:29:19.298Z,3.10
2018-09-30T12:34:23.633Z,3.83
2018-09-30T12:39:28.237Z,5.13
2018-09-30T12:44:32.665Z,4.87
2018-09-30T12:49:38.035Z,5.08
2018-09-30T12:54:42.553Z,5.10
2018-09-30T12:59:47.665Z,4.20
2018-09-30T13:04:51.993Z,8.77
2018-09-30T13:09:56.383Z,5.70
2018-09-30T13:15:00.890Z,3.57
2018-09-30T13:20:05.416Z,4.40
2018-09-30T13:25:10.425Z,2.92
2018-09-30T13:30:19.984Z,4.60
2018-09-30T13:35:24.524Z,4.63
2018-09-30T13:40:29.021Z,4.28
2018-09-30T13:45:33.348Z,4.30
2018-09-30T13:50:37.989Z,3.87
2018-09-30T13:55:42.506Z,3.65
2018-09-30T14:00:47.282Z,3.95
2018-09-30T14:05:51.722Z,4.87
2018-09-30T14:10:56.332Z,4.50
2018-09-30T14:16:01.010Z,4.23
2018-09-30T14:21:05.285Z,3.13
2018-09-30T14:26:09.778Z,3.60
2018-09-30T14:31:14.469Z,3.35
2018-09-30T14:36:18.931Z,3.60
2018-09-30T14:41:24.292Z,5.10
2018-09-30T14:46:28.663Z,5.22
2018-09-30T14:51:32.997Z,3.67
2018-09-30T14:56:37.432Z,3.67
2018-09-30T15:01:42.373Z,4.70
2018-09-30T15:06:46.746Z,4.17
2018-09-30T15:11:51.082Z,3.23
2018-09-30T15:16:55.452Z,6.67
2018-09-30T15:22:00.107Z,3.90
2018-09-30T15:27:04.331Z,4.80
2018-09-30T15:32:09.081Z,5.55
2018-09-30T15:37:14.190Z,3.40
2018-09-30T15:42:18.490Z,4.60
2018-09-30T15:47:23.105Z,4.70
2018-09-30T15:52:27.567Z,3.12
2018-09-30T15:57:32.111Z,3.75
2018-09-30T16:02:36.589Z,3.75
2018-09-30T16:07:41.008Z,3.70
2018-09-30T16:12:45.412Z,3.50
2018-09-30T16:17:49.841Z,3.98
2018-09-30T16:22:54.587Z,4.20
2018-09-30T16:27:59.180Z,6.90
2018-09-30T16:33:03.817Z,6.12
2018-09-30T16:38:08.447Z,4.87
2018-09-30T16:43:12.909Z,5.37
2018-09-30T16:48:17.640Z,3.65
2018-09-30T16:53:27.462Z,4.72
2018-09-30T16:58:32.326Z,4.17
2018-09-30T17:03:37.018Z,5.45
2018-09-30T17:08:41.830Z,4.72
2018-09-30T17:13:46.576Z,4.90
2018-09-30T17:18:51.123Z,6.10
2018-09-30T17:23:55.695Z,6.22
2018-09-30T17:29:00.281Z,5.70
2018-09-30T17:34:04.648Z,4.87
2018-09-30T17:39:14.098Z,5.60
2018-09-30T17:44:18.753Z,5.60
2018-09-30T17:49:24.512Z,10.63
2018-09-30T17:54:29.224Z,6.67
2018-09-30T17:59:34.004Z,9.73
2018-09-30T18:04:38.433Z,12.47
2018-09-30T18:09:42.939Z,12.20
2018-09-30T18:14:47.446Z,9.43
2018-09-30T18:19:52.217Z,12.13
2018-09-30T18:24:56.767Z,9.33
2018-09-30T18:30:00.990Z,10.63
2018-09-30T18:35:05.385Z,12.10
2018-09-30T18:40:09.781Z,10.48
2018-09-30T18:45:14.448Z,12.60
2018-09-30T18:50:18.828Z,10.13
2018-09-30T18:55:23.661Z,12.47
2018-09-30T19:00:28.159Z,11.77
2018-09-30T19:05:32.904Z,10.50
2018-09-30T19:10:37.389Z,12.55
2018-09-30T19:15:42.070Z,12.82
2018-09-30T19:20:46.749Z,10.88
2018-09-30T19:25:51.235Z,13.68
2018-09-30T19:30:55.775Z,8.98
2018-09-30T19:36:00.216Z,11.80
2018-09-30T19:41:09.571Z,10.37
2018-09-30T19:46:13.970Z,12.90
2018-09-30T19:51:18.341Z,11.03
2018-09-30T19:56:22.759Z,11.48
2018-09-30T20:01:27.256Z,10.55
2018-09-30T20:06:31.535Z,11.12
2018-09-30T20:11:36.157Z,12.80
2018-09-30T20:16:40.720Z,12.80
2018-09-30T20:21:45.226Z,11.73
2018-09-30T20:26:49.878Z,13.08
2018-09-30T20:31:54.333Z,11.45
2018-09-30T20:36:58.610Z,12.47
2018-09-30T20:42:02.995Z,12.05
2018-09-30T20:47:07.266Z,13.10
2018-09-30T20:52:11.560Z,12.10
2018-09-30T20:57:15.936Z,12.28
2018-09-30T21:02:20.240Z,12.40
2018-09-30T21:07:24.763Z,10.33
2018-09-30T21:12:29.257Z,11.03
2018-09-30T21:17:33.660Z,12.40
2018-09-30T21:22:37.926Z,11.90
2018-09-30T21:27:42.156Z,13.03
2018-09-30T21:32:46.604Z,13.18
2018-09-30T21:37:51.480Z,13.27
2018-09-30T21:42:55.812Z,11.57
2018-09-30T21:48:00.725Z,10.83
2018-09-30T21:53:05.262Z,11.40
2018-09-30T21:58:09.559Z,11.80
2018-09-30T22:03:14.613Z,11.50
2018-09-30T22:08:18.952Z,15.28
2018-09-30T22:13:23.532Z,11.33
2018-09-30T22:18:27.957Z,12.37
2018-09-30T22:23:32.380Z,13.33
2018-09-30T22:28:36.586Z,13.23
2018-09-30T22:33:40.835Z,12.27
2018-09-30T22:38:45.566Z,13.03
2018-09-30T22:43:49.796Z,12.53
2018-09-30T22:48:54.036Z,11.57
2018-09-30T22:53:58.231Z,11.33
2018-09-30T22:59:03.070Z,12.57
2018-09-30T23:04:07.344Z,13.23
2018-09-30T23:09:11.509Z,11.23
2018-09-30T23:14:15.666Z,12.10
2018-09-30T23:19:19.832Z,13.40
2018-09-30T23:24:24.078Z,12.07
2018-09-30T23:29:28.210Z,11.87
2018-09-30T23:34:32.429Z,12.80
2018-09-30T23:39:36.976Z,11.50
2018-09-30T23:44:41.239Z,12.63
2018-09-30T23:49:45.473Z,13.53
2018-09-30T23:54:49.777Z,11.10
2018-09-30T23:59:54.021Z,11.80
